Time;durP1;ratioP1;P1;durP2;ratioP2;P2;SDS_P1;SDS_P2;PMS_P1;PMS_P2;Temp;Humidity;BMP_temperature;BMP_pressure;BME280_temperature;BME280_humidity;BME280_pressure;Samples;Min_cycle;Max_cycle;Signal;HPM_P1;HPM_P2
2023/09/30 00:00:17;;;;;;;14.63;4.45;;;13.10;99.90;;;;;;4937436;29;20113;-74
2023/09/30 00:03:03;;;;;;;16.40;3.78;;;13.10;99.90;;;;;;4937072;29;20066;-73
2023/09/30 00:05:49;;;;;;;19.23;3.58;;;13.20;99.90;;;;;;4952825;29;20086;-72
2023/09/30 00:08:36;;;;;;;15.85;3.03;;;13.10;99.90;;;;;;4954483;28;20121;-73
2023/09/30 00:11:22;;;;;;;13.45;2.80;;;13.10;99.90;;;;;;4941007;28;20054;-73
2023/09/30 00:14:08;;;;;;;14.00;2.95;;;13.10;99.90;;;;;;4937199;29;20135;-72
2023/09/30 00:16:54;;;;;;;11.60;3.08;;;13.10;99.90;;;;;;4923206;29;20066;-74
2023/09/30 00:19:40;;;;;;;26.50;3.75;;;13.10;99.90;;;;;;4936561;29;20043;-73
2023/09/30 00:22:27;;;;;;;11.57;2.70;;;13.00;99.90;;;;;;4936609;29;20411;-74
2023/09/30 00:25:13;;;;;;;17.13;3.67;;;13.10;99.90;;;;;;4936228;29;20073;-75
2023/09/30 00:27:59;;;;;;;14.23;2.80;;;13.00;99.90;;;;;;4936861;29;20165;-72
2023/09/30 00:30:47;;;;;;;14.40;2.92;;;13.00;99.90;;;;;;4923586;29;20523;-77
2023/09/30 00:33:33;;;;;;;13.18;4.07;;;13.00;99.90;;;;;;4936721;29;20050;-76
2023/09/30 00:36:19;;;;;;;17.40;3.55;;;13.00;99.90;;;;;;4936546;29;20055;-73
2023/09/30 00:39:07;;;;;;;11.88;2.83;;;13.00;99.90;;;;;;4936625;29;20055;-75
2023/09/30 00:41:54;;;;;;;14.38;2.70;;;13.00;99.90;;;;;;4936477;29;20058;-74
2023/09/30 00:44:40;;;;;;;11.23;3.10;;;12.90;99.90;;;;;;4910049;29;20047;-77
2023/09/30 00:47:26;;;;;;;14.05;2.92;;;12.90;99.90;;;;;;4936389;29;20884;-76
2023/09/30 00:50:13;;;;;;;12.77;2.60;;;12.90;99.90;;;;;;4936119;29;20059;-75
2023/09/30 00:52:59;;;;;;;19.23;3.63;;;12.90;99.90;;;;;;4953703;28;20059;-74
2023/09/30 00:55:45;;;;;;;9.85;2.40;;;12.90;99.90;;;;;;4953217;29;20055;-73
2023/09/30 00:58:33;;;;;;;13.88;3.10;;;12.90;99.90;;;;;;4936433;29;20125;-77
2023/09/30 01:01:20;;;;;;;10.85;2.13;;;12.90;99.90;;;;;;4936409;29;20523;-73
2023/09/30 01:04:07;;;;;;;14.07;3.22;;;12.90;99.90;;;;;;4936353;29;20507;-76
2023/09/30 01:06:53;;;;;;;10.00;2.75;;;12.90;99.90;;;;;;4936403;29;20062;-77
2023/09/30 01:09:39;;;;;;;11.65;2.92;;;12.90;99.90;;;;;;4935757;29;20059;-73
2023/09/30 01:12:25;;;;;;;15.45;2.88;;;12.90;99.90;;;;;;4922603;29;20063;-84
2023/09/30 01:15:11;;;;;;;17.17;3.08;;;12.90;99.90;;;;;;4935639;29;20055;-82
2023/09/30 01:17:58;;;;;;;11.15;3.50;;;12.90;99.90;;;;;;4952635;29;20082;-83
2023/09/30 01:20:44;;;;;;;15.35;4.05;;;12.90;99.90;;;;;;4922001;29;20063;-74
2023/09/30 01:23:31;;;;;;;14.88;3.60;;;12.80;99.90;;;;;;4935492;29;20059;-72
2023/09/30 01:26:18;;;;;;;14.30;3.53;;;12.80;99.90;;;;;;4925246;29;20090;-72
2023/09/30 01:29:04;;;;;;;17.88;3.33;;;12.80;99.90;;;;;;4957254;28;20047;-73
2023/09/30 01:31:50;;;;;;;18.80;3.70;;;12.70;99.90;;;;;;4939261;29;20407;-72
2023/09/30 01:34:36;;;;;;;9.85;2.72;;;12.70;99.90;;;;;;4940092;29;20059;-76
2023/09/30 01:37:26;;;;;;;10.88;2.95;;;12.70;99.90;;;;;;4939574;29;20062;-72
2023/09/30 01:40:12;;;;;;;12.63;3.13;;;12.70;99.90;;;;;;4956187;29;20146;-75
2023/09/30 01:42:58;;;;;;;16.02;4.13;;;12.70;99.90;;;;;;4955603;29;20085;-77
2023/09/30 01:45:44;;;;;;;14.05;3.88;;;12.70;99.90;;;;;;4939869;29;20054;-76
2023/09/30 01:48:30;;;;;;;19.73;3.47;;;12.70;99.90;;;;;;4956134;29;20090;-73
2023/09/30 01:51:16;;;;;;;23.30;3.03;;;12.70;99.90;;;;;;4942217;29;20141;-75
2023/09/30 01:54:02;;;;;;;13.23;3.40;;;12.70;99.90;;;;;;4955179;29;20047;-72
2023/09/30 01:56:49;;;;;;;19.35;3.88;;;12.70;99.90;;;;;;4938641;29;20055;-74
2023/09/30 01:59:35;;;;;;;14.55;3.75;;;12.70;99.90;;;;;;4942203;29;20555;-75
2023/09/30 02:02:21;;;;;;;10.48;3.47;;;12.70;99.90;;;;;;4939612;29;20055;-72
2023/09/30 02:05:08;;;;;;;15.43;3.17;;;12.70;99.90;;;;;;4956779;28;20055;-75
2023/09/30 02:07:54;;;;;;;16.45;3.30;;;12.70;99.90;;;;;;4956119;29;20620;-75
2023/09/30 02:10:41;;;;;;;12.45;3.53;;;12.70;99.90;;;;;;4939408;29;20055;-73
2023/09/30 02:13:27;;;;;;;11.90;3.10;;;12.70;99.90;;;;;;4956496;28;20499;-81
2023/09/30 02:16:13;;;;;;;10.35;3.03;;;12.70;99.90;;;;;;4956651;28;20451;-75
2023/09/30 02:18:59;;;;;;;11.30;3.45;;;12.70;99.90;;;;;;4938144;29;20091;-81
2023/09/30 02:21:46;;;;;;;13.15;3.45;;;12.70;99.90;;;;;;4938799;29;20047;-73
2023/09/30 02:24:32;;;;;;;14.40;3.13;;;12.70;99.90;;;;;;4939476;29;20082;-77
2023/09/30 02:27:18;;;;;;;13.00;3.35;;;12.70;99.90;;;;;;4940684;29;20726;-77
2023/09/30 02:30:05;;;;;;;12.13;3.45;;;12.70;99.90;;;;;;4955830;29;20055;-81
2023/09/30 02:32:51;;;;;;;8.77;2.92;;;12.70;99.90;;;;;;4938919;29;20475;-83
2023/09/30 02:35:38;;;;;;;7.97;2.65;;;12.70;99.90;;;;;;4941775;28;20451;-80
2023/09/30 02:38:25;;;;;;;10.10;3.03;;;12.70;99.90;;;;;;4954199;29;20047;-81
2023/09/30 02:41:11;;;;;;;12.07;3.13;;;12.70;99.90;;;;;;4955988;28;20060;-77
2023/09/30 02:43:57;;;;;;;9.95;2.88;;;12.70;99.90;;;;;;4938704;29;20419;-78
2023/09/30 02:46:43;;;;;;;13.73;2.97;;;12.70;99.90;;;;;;4938702;29;20094;-79
2023/09/30 02:49:32;;;;;;;10.65;3.67;;;12.70;99.90;;;;;;4953987;29;20058;-77
2023/09/30 02:52:18;;;;;;;12.60;2.88;;;12.70;99.90;;;;;;4938648;29;20073;-78
2023/09/30 02:55:05;;;;;;;11.80;3.20;;;12.70;99.90;;;;;;4938052;29;20134;-75
2023/09/30 02:57:52;;;;;;;11.77;3.75;;;12.70;99.90;;;;;;4940329;29;20827;-73
2023/09/30 03:00:38;;;;;;;14.98;3.63;;;12.70;99.90;;;;;;4924832;29;20063;-75
2023/09/30 03:03:25;;;;;;;8.18;2.60;;;12.70;99.90;;;;;;4953907;29;20536;-76
2023/09/30 03:06:11;;;;;;;19.73;3.47;;;12.70;99.90;;;;;;4938168;29;20059;-80
2023/09/30 03:08:57;;;;;;;14.00;3.03;;;12.70;99.90;;;;;;4925562;29;20057;-79
2023/09/30 03:11:43;;;;;;;11.70;3.05;;;12.70;99.90;;;;;;4955340;28;20555;-80
2023/09/30 03:14:30;;;;;;;17.27;3.55;;;12.70;99.90;;;;;;4953986;29;20106;-81
2023/09/30 03:17:17;;;;;;;14.15;4.00;;;12.60;99.90;;;;;;4938477;29;20058;-83
2023/09/30 03:20:11;;;;;;;15.85;3.83;;;12.70;99.90;;;;;;4937801;28;20086;-81
2023/09/30 03:22:59;;;;;;;11.15;3.47;;;12.60;99.90;;;;;;4955348;28;20393;-74
2023/09/30 03:25:45;;;;;;;9.10;3.40;;;12.60;99.90;;;;;;4937841;29;20055;-76
2023/09/30 03:28:31;;;;;;;13.13;2.40;;;12.60;99.90;;;;;;4953276;29;20082;-72
2023/09/30 03:31:20;;;;;;;10.98;3.42;;;12.60;99.90;;;;;;4953238;29;20103;-77
2023/09/30 03:34:06;;;;;;;13.25;3.17;;;12.60;99.90;;;;;;4937650;29;20142;-77
2023/09/30 03:36:54;;;;;;;14.98;3.17;;;12.60;99.90;;;;;;4953998;29;20117;-75
2023/09/30 03:39:41;;;;;;;11.18;3.83;;;12.60;99.90;;;;;;4953595;29;20397;-72
2023/09/30 03:42:30;;;;;;;8.60;3.45;;;12.60;99.90;;;;;;4937343;29;20055;-79
2023/09/30 03:45:16;;;;;;;20.27;4.25;;;12.60;99.90;;;;;;4937232;29;20507;-77
2023/09/30 03:48:02;;;;;;;11.85;3.63;;;12.60;99.90;;;;;;4935990;29;20059;-76
2023/09/30 03:50:48;;;;;;;10.90;3.05;;;12.60;99.90;;;;;;4953438;29;20496;-74
2023/09/30 03:53:35;;;;;;;14.95;4.00;;;12.60;99.90;;;;;;4954629;28;20081;-80
2023/09/30 03:56:22;;;;;;;10.35;3.30;;;12.60;99.90;;;;;;4910287;29;20085;-73
2023/09/30 03:59:08;;;;;;;16.70;3.40;;;12.60;99.90;;;;;;4954567;28;20432;-84
2023/09/30 04:01:54;;;;;;;11.15;3.30;;;12.60;99.90;;;;;;4936164;29;20043;-80
2023/09/30 04:04:40;;;;;;;10.85;2.60;;;12.60;99.90;;;;;;4937201;29;20059;-80
2023/09/30 04:07:27;;;;;;;13.82;3.55;;;12.60;99.90;;;;;;4939839;29;20517;-82
2023/09/30 04:10:13;;;;;;;12.52;2.75;;;12.60;99.90;;;;;;4954836;28;20054;-82
2023/09/30 04:12:59;;;;;;;17.90;3.03;;;12.60;99.90;;;;;;4953601;29;20503;-80
2023/09/30 04:15:46;;;;;;;11.13;3.22;;;12.60;99.90;;;;;;4936704;29;20154;-78
2023/09/30 04:18:32;;;;;;;12.80;2.80;;;12.60;99.90;;;;;;4923425;29;20051;-72
2023/09/30 04:21:18;;;;;;;9.55;2.33;;;12.60;99.90;;;;;;4936052;28;20059;-75
2023/09/30 04:24:06;;;;;;;15.90;3.25;;;12.60;99.90;;;;;;4936457;29;20062;-77
2023/09/30 04:26:56;;;;;;;13.75;2.97;;;12.60;99.90;;;;;;4936378;29;20055;-80
2023/09/30 04:29:43;;;;;;;14.30;3.25;;;12.60;99.90;;;;;;4937337;29;20792;-78
2023/09/30 04:32:29;;;;;;;13.20;2.55;;;12.50;99.90;;;;;;4936848;29;20138;-83
2023/09/30 04:35:15;;;;;;;10.52;2.88;;;12.50;99.90;;;;;;4954917;29;20055;-80
2023/09/30 04:38:02;;;;;;;10.52;2.83;;;12.60;99.90;;;;;;4924506;29;20493;-79
2023/09/30 04:40:51;;;;;;;11.85;2.75;;;12.60;99.90;;;;;;4937116;29;20514;-82
2023/09/30 04:43:40;;;;;;;15.15;3.47;;;12.60;99.90;;;;;;4942435;29;20052;-77
2023/09/30 04:46:26;;;;;;;25.45;4.15;;;12.60;99.90;;;;;;4961116;28;20055;-79
2023/09/30 04:49:14;;;;;;;13.57;3.10;;;12.60;99.90;;;;;;4930896;29;20119;-81
2023/09/30 04:52:00;;;;;;;13.85;2.88;;;12.60;99.90;;;;;;4961480;28;20134;-76
2023/09/30 04:54:46;;;;;;;21.17;3.95;;;12.60;99.90;;;;;;4940513;29;20054;-78
2023/09/30 04:57:32;;;;;;;10.15;3.40;;;12.60;99.90;;;;;;4935938;29;20047;-73
2023/09/30 05:00:24;;;;;;;16.95;3.40;;;12.60;99.90;;;;;;4952454;28;20055;-71
2023/09/30 05:03:11;;;;;;;13.93;2.88;;;12.60;99.90;;;;;;4936695;29;20389;-72
2023/09/30 05:05:58;;;;;;;16.02;2.90;;;12.60;99.90;;;;;;4936465;29;20483;-79
2023/09/30 05:08:44;;;;;;;7.43;2.25;;;12.60;99.90;;;;;;4936342;29;20047;-78
2023/09/30 05:11:31;;;;;;;17.95;4.10;;;12.50;99.90;;;;;;4951527;29;20174;-71
2023/09/30 05:14:17;;;;;;;12.98;3.38;;;12.50;99.90;;;;;;4936866;28;20404;-82
2023/09/30 05:17:04;;;;;;;11.40;3.08;;;12.50;99.90;;;;;;4953045;29;20147;-76
2023/09/30 05:19:50;;;;;;;15.65;3.83;;;12.40;99.90;;;;;;4934551;28;20058;-77
2023/09/30 05:22:36;;;;;;;11.50;3.00;;;12.40;99.90;;;;;;4950994;29;20086;-73
2023/09/30 05:25:26;;;;;;;10.88;3.08;;;12.40;99.90;;;;;;4936106;29;20047;-71
2023/09/30 05:28:13;;;;;;;12.70;3.70;;;12.40;99.90;;;;;;4922647;29;20514;-71
2023/09/30 05:30:59;;;;;;;11.20;3.17;;;12.40;99.90;;;;;;4952038;29;20435;-75
2023/09/30 05:33:45;;;;;;;10.63;3.22;;;12.30;99.90;;;;;;4936040;29;20089;-73
2023/09/30 05:36:31;;;;;;;18.33;4.15;;;12.30;99.90;;;;;;4923016;29;20090;-72
2023/09/30 05:39:19;;;;;;;7.88;2.50;;;12.20;99.90;;;;;;4951382;29;20051;-73
2023/09/30 05:42:06;;;;;;;8.85;3.00;;;12.20;99.90;;;;;;4938538;29;20047;-75
2023/09/30 05:44:53;;;;;;;18.23;3.72;;;12.30;99.90;;;;;;4952549;29;20043;-73
2023/09/30 05:47:40;;;;;;;15.77;3.47;;;12.30;99.90;;;;;;4937708;29;20089;-75
2023/09/30 05:50:26;;;;;;;12.25;3.30;;;12.30;99.90;;;;;;4936153;29;20059;-71
2023/09/30 05:53:13;;;;;;;11.45;3.72;;;12.30;99.90;;;;;;4935571;29;20077;-75
2023/09/30 05:55:59;;;;;;;14.35;3.90;;;12.30;99.90;;;;;;4935706;29;20062;-74
2023/09/30 05:58:46;;;;;;;15.82;3.10;;;12.30;99.90;;;;;;4922749;29;20063;-79
2023/09/30 06:01:32;;;;;;;17.92;3.10;;;12.30;99.90;;;;;;4936579;28;20110;-73
2023/09/30 06:04:19;;;;;;;10.68;3.03;;;12.30;99.90;;;;;;4951443;29;20059;-72
2023/09/30 06:07:06;;;;;;;13.73;2.42;;;12.30;99.90;;;;;;4935686;29;20085;-73
2023/09/30 06:09:53;;;;;;;15.50;3.47;;;12.30;99.90;;;;;;4936415;28;20073;-72
2023/09/30 06:12:40;;;;;;;11.95;2.97;;;12.30;99.90;;;;;;4938733;29;20622;-72
2023/09/30 06:15:26;;;;;;;14.70;3.33;;;12.30;99.90;;;;;;4939344;29;20055;-86
2023/09/30 06:18:15;;;;;;;10.50;2.90;;;12.30;99.90;;;;;;4939156;29;20058;-73
2023/09/30 06:21:01;;;;;;;12.90;3.30;;;12.30;99.90;;;;;;4924995;29;20055;-76
2023/09/30 06:23:51;;;;;;;8.93;2.67;;;12.30;99.90;;;;;;4938094;29;20066;-76
2023/09/30 06:26:37;;;;;;;9.25;2.78;;;12.40;99.90;;;;;;4938790;29;20086;-73
2023/09/30 06:29:23;;;;;;;12.93;2.90;;;12.40;99.90;;;;;;4954454;29;20062;-74
2023/09/30 06:32:09;;;;;;;16.17;3.08;;;12.40;99.90;;;;;;4954343;29;20073;-72
2023/09/30 06:34:55;;;;;;;11.73;3.00;;;12.50;99.90;;;;;;4955982;28;20086;-71
2023/09/30 06:37:42;;;;;;;13.60;3.53;;;12.50;99.90;;;;;;4955182;29;20059;-79
2023/09/30 06:40:28;;;;;;;11.85;3.22;;;12.50;99.90;;;;;;4938381;29;20541;-71
2023/09/30 06:43:18;;;;;;;12.88;3.90;;;12.50;99.90;;;;;;4939134;28;20268;-76
2023/09/30 06:46:10;;;;;;;11.23;2.85;;;12.50;99.90;;;;;;4955069;29;20496;-72
2023/09/30 06:48:56;;;;;;;11.13;3.08;;;12.60;99.90;;;;;;4937485;29;20066;-75
2023/09/30 06:51:43;;;;;;;15.57;2.78;;;12.60;99.90;;;;;;4954752;29;20061;-76
2023/09/30 06:54:31;;;;;;;11.00;3.05;;;12.60;99.90;;;;;;4937759;29;20562;-74
2023/09/30 06:57:17;;;;;;;13.00;2.72;;;12.70;99.90;;;;;;4955645;28;20063;-74
2023/09/30 07:00:09;;;;;;;10.73;2.53;;;12.70;99.90;;;;;;4938551;29;20495;-75
2023/09/30 07:02:55;;;;;;;10.90;2.47;;;12.80;99.90;;;;;;4955240;29;20163;-72
2023/09/30 07:05:41;;;;;;;10.20;2.63;;;12.80;99.90;;;;;;4954810;29;20053;-74
2023/09/30 07:08:29;;;;;;;11.40;2.80;;;12.90;99.90;;;;;;4953676;29;20419;-76
2023/09/30 07:11:15;;;;;;;13.02;2.55;;;13.00;99.90;;;;;;4938439;29;20048;-72
2023/09/30 07:14:01;;;;;;;15.85;2.78;;;13.10;99.90;;;;;;4937184;29;20059;-74
2023/09/30 07:16:48;;;;;;;9.80;2.40;;;13.20;99.90;;;;;;4953862;29;20063;-77
2023/09/30 07:19:34;;;;;;;15.82;4.07;;;13.30;99.90;;;;;;4938137;29;20973;-77
2023/09/30 07:22:20;;;;;;;13.90;2.92;;;13.40;99.90;;;;;;4923726;29;20439;-74
2023/09/30 07:25:08;;;;;;;14.50;2.75;;;13.50;99.90;;;;;;4938060;29;20107;-75
2023/09/30 07:27:54;;;;;;;17.75;3.55;;;13.50;99.90;;;;;;4937965;29;20047;-75
2023/09/30 07:30:40;;;;;;;11.48;3.40;;;13.60;99.90;;;;;;4953342;29;20652;-77
2023/09/30 07:33:26;;;;;;;12.20;2.63;;;13.80;99.90;;;;;;4937952;29;20504;-76
2023/09/30 07:36:14;;;;;;;13.35;2.30;;;13.80;99.90;;;;;;4924330;29;20052;-77
2023/09/30 07:39:00;;;;;;;13.07;2.55;;;13.90;99.90;;;;;;4936880;29;20051;-78
2023/09/30 07:41:46;;;;;;;14.77;5.05;;;14.00;99.90;;;;;;4954700;28;20563;-77
2023/09/30 07:44:33;;;;;;;10.77;2.90;;;14.10;99.90;;;;;;4937666;29;20059;-76
2023/09/30 07:47:19;;;;;;;12.85;3.05;;;14.10;99.90;;;;;;4936802;29;20047;-80
2023/09/30 07:50:09;;;;;;;14.27;4.07;;;14.20;99.90;;;;;;4936517;29;20141;-74
2023/09/30 07:52:55;;;;;;;15.73;2.50;;;14.30;99.90;;;;;;4937691;29;20051;-76
2023/09/30 07:55:41;;;;;;;19.90;3.20;;;14.40;99.90;;;;;;4937606;29;20467;-77
2023/09/30 07:58:28;;;;;;;12.68;2.28;;;14.40;99.90;;;;;;4953684;29;20051;-76
2023/09/30 08:01:14;;;;;;;10.57;2.42;;;14.40;99.90;;;;;;4937123;29;20065;-79
2023/09/30 08:04:01;;;;;;;10.70;2.13;;;14.50;99.90;;;;;;4954136;29;20051;-77
2023/09/30 08:06:47;;;;;;;11.15;3.42;;;14.60;99.90;;;;;;4954445;28;20059;-78
2023/09/30 08:09:33;;;;;;;9.85;2.90;;;14.60;99.90;;;;;;4923260;29;20118;-72
2023/09/30 08:12:19;;;;;;;14.52;2.65;;;14.70;99.90;;;;;;4936348;29;20055;-76
2023/09/30 08:15:06;;;;;;;12.52;2.85;;;14.80;99.90;;;;;;4937024;29;20443;-80
2023/09/30 08:17:52;;;;;;;14.80;2.90;;;14.90;99.90;;;;;;4937059;29;20047;-75
2023/09/30 08:20:38;;;;;;;13.68;2.88;;;15.00;99.90;;;;;;4936258;29;20457;-75
2023/09/30 08:23:25;;;;;;;11.60;2.85;;;15.10;99.90;;;;;;4936066;29;20420;-79
2023/09/30 08:26:11;;;;;;;11.63;2.47;;;15.20;99.90;;;;;;4936183;29;20047;-77
2023/09/30 08:28:57;;;;;;;11.77;2.47;;;15.30;99.90;;;;;;4936517;29;20093;-77
2023/09/30 08:31:43;;;;;;;15.23;3.00;;;15.40;99.90;;;;;;4922935;29;20051;-74
2023/09/30 08:34:30;;;;;;;12.40;2.60;;;15.50;99.90;;;;;;4954195;28;20058;-81
2023/09/30 08:37:16;;;;;;;11.68;2.67;;;15.60;99.90;;;;;;4937021;29;20055;-77
2023/09/30 08:40:04;;;;;;;14.10;2.28;;;15.80;99.90;;;;;;4936676;29;20105;-80
2023/09/30 08:42:53;;;;;;;10.80;2.33;;;15.80;99.90;;;;;;4953160;29;20089;-73
2023/09/30 08:45:43;;;;;;;11.05;2.60;;;16.00;99.90;;;;;;4936397;29;20059;-76
2023/09/30 08:48:32;;;;;;;11.82;2.85;;;16.10;99.90;;;;;;4936301;29;20062;-79
2023/09/30 08:51:18;;;;;;;10.55;2.83;;;16.20;99.90;;;;;;4936665;29;20659;-85
2023/09/30 08:54:05;;;;;;;14.43;2.05;;;16.40;99.90;;;;;;4936351;29;20055;-85
2023/09/30 08:56:51;;;;;;;14.15;3.08;;;16.50;99.90;;;;;;4953277;29;20047;-80
2023/09/30 08:59:41;;;;;;;13.98;2.38;;;16.60;99.90;;;;;;4935986;29;20051;-83
2023/09/30 09:02:27;;;;;;;9.02;1.98;;;16.70;99.90;;;;;;4936059;29;20055;-84
2023/09/30 09:05:13;;;;;;;10.10;1.65;;;16.80;99.90;;;;;;4951494;29;20125;-76
2023/09/30 09:07:59;;;;;;;12.13;2.47;;;16.90;99.90;;;;;;4951687;29;20054;-83
2023/09/30 09:10:57;;;;;;;13.82;2.83;;;17.00;99.90;;;;;;4935540;29;20051;-78
2023/09/30 09:13:55;;;;;;;15.45;3.00;;;17.20;99.90;;;;;;4936310;29;20077;-84
2023/09/30 09:16:54;;;;;;;13.35;3.08;;;17.30;99.90;;;;;;4936276;29;20459;-83
2023/09/30 09:19:40;;;;;;;16.95;2.65;;;17.50;99.90;;;;;;4935675;29;20051;-82
2023/09/30 09:22:40;;;;;;;19.70;2.97;;;17.50;99.90;;;;;;4939360;29;20051;-81
2023/09/30 09:25:26;;;;;;;13.15;1.83;;;17.70;99.90;;;;;;4953545;28;20138;-86
2023/09/30 09:28:15;;;;;;;12.95;2.30;;;17.80;99.90;;;;;;4936290;29;20056;-86
2023/09/30 09:31:01;;;;;;;11.85;1.60;;;18.00;99.90;;;;;;4951328;29;20097;-81
2023/09/30 09:33:48;;;;;;;20.23;2.35;;;18.00;99.90;;;;;;4953107;29;20053;-84
2023/09/30 09:36:38;;;;;;;16.80;2.63;;;18.10;99.90;;;;;;4953689;28;20484;-87
2023/09/30 09:39:31;;;;;;;11.13;2.38;;;18.10;99.90;;;;;;4922076;29;20095;-83
2023/09/30 09:42:28;;;;;;;13.88;2.28;;;18.20;99.90;;;;;;4935742;29;20051;-75
2023/09/30 09:45:14;;;;;;;14.18;2.10;;;18.40;99.90;;;;;;4953104;28;20070;-77
2023/09/30 09:48:01;;;;;;;11.77;2.65;;;18.60;99.90;;;;;;4939940;29;20051;-76
2023/09/30 09:50:47;;;;;;;10.70;2.72;;;18.80;99.90;;;;;;4927266;29;20126;-78
2023/09/30 09:53:39;;;;;;;8.50;1.85;;;18.90;99.90;;;;;;4938732;29;20058;-75
2023/09/30 09:56:26;;;;;;;19.50;2.80;;;19.00;99.90;;;;;;4939052;29;20090;-74
2023/09/30 09:59:13;;;;;;;15.07;3.13;;;19.10;99.90;;;;;;4942033;29;20055;-84
2023/09/30 10:02:00;;;;;;;8.02;1.60;;;19.20;99.90;;;;;;4937919;29;20137;-83
2023/09/30 10:04:47;;;;;;;9.52;1.77;;;19.00;99.90;;;;;;4939134;29;20061;-83
2023/09/30 10:07:55;;;;;;;9.25;1.63;;;18.90;99.90;;;;;;4938510;29;20099;-85
2023/09/30 10:10:43;;;;;;;9.27;1.85;;;19.00;99.90;;;;;;4956217;29;20145;-82
2023/09/30 10:14:03;;;;;;;8.15;1.55;;;18.90;99.90;;;;;;4926069;29;20059;-82
2023/09/30 10:16:49;;;;;;;12.27;1.90;;;19.00;99.90;;;;;;4940058;29;20062;-81
2023/09/30 10:19:35;;;;;;;12.38;1.70;;;19.00;99.90;;;;;;4943037;29;20066;-74
2023/09/30 10:22:22;;;;;;;8.15;1.40;;;18.90;99.90;;;;;;4957759;29;20066;-85
2023/09/30 10:25:39;;;;;;;8.18;1.60;;;18.90;99.90;;;;;;4940349;29;20389;-81
2023/09/30 10:28:39;;;;;;;11.25;1.63;;;18.90;99.90;;;;;;4956825;28;20058;-82
2023/09/30 10:31:25;;;;;;;10.13;2.60;;;19.00;99.90;;;;;;4938927;29;20086;-80
2023/09/30 10:34:11;;;;;;;10.70;1.70;;;19.00;99.90;;;;;;4938893;29;20086;-73
2023/09/30 10:36:57;;;;;;;7.95;1.40;;;19.20;99.90;;;;;;4954114;29;20055;-87
2023/09/30 10:39:54;;;;;;;9.30;1.85;;;19.60;99.90;;;;;;4955073;29;20463;-73
2023/09/30 10:42:49;;;;;;;9.13;1.83;;;19.80;99.90;;;;;;4955883;28;20048;-73
2023/09/30 10:45:38;;;;;;;6.53;1.60;;;20.10;99.90;;;;;;4938701;29;20173;-73
2023/09/30 10:48:40;;;;;;;6.93;1.52;;;20.40;99.90;;;;;;4956098;28;20047;-73
2023/09/30 10:51:27;;;;;;;10.32;1.85;;;20.70;99.90;;;;;;4938577;29;20055;-74
2023/09/30 10:54:13;;;;;;;12.70;1.65;;;20.90;99.90;;;;;;4953834;29;20059;-73
2023/09/30 10:57:00;;;;;;;6.18;1.17;;;21.00;99.90;;;;;;4954706;28;20280;-72
2023/09/30 10:59:46;;;;;;;7.45;1.75;;;21.00;99.90;;;;;;4937578;29;20674;-76
2023/09/30 11:02:32;;;;;;;10.77;1.33;;;21.00;99.90;;;;;;4938021;29;20066;-73
2023/09/30 11:05:20;;;;;;;7.38;1.40;;;21.00;99.90;;;;;;4953612;29;20440;-79
2023/09/30 11:08:07;;;;;;;7.50;1.60;;;21.50;99.90;;;;;;4954911;29;20051;-74
2023/09/30 11:10:54;;;;;;;8.77;1.73;;;21.60;99.90;;;;;;4938358;29;20062;-79
2023/09/30 11:13:40;;;;;;;8.25;1.88;;;22.30;99.90;;;;;;4955686;28;20109;-82
2023/09/30 11:16:26;;;;;;;11.45;2.15;;;22.70;99.60;;;;;;4953552;29;20047;-77
2023/09/30 11:19:13;;;;;;;6.80;1.65;;;22.90;98.20;;;;;;4938448;29;20073;-74
2023/09/30 11:21:59;;;;;;;7.80;2.10;;;22.60;97.70;;;;;;4937080;29;20154;-76
2023/09/30 11:24:46;;;;;;;10.25;1.70;;;23.10;97.60;;;;;;4955332;28;20054;-75
2023/09/30 11:27:32;;;;;;;9.43;1.60;;;23.50;97.30;;;;;;4937195;29;20059;-75
2023/09/30 11:30:18;;;;;;;10.90;2.42;;;23.80;96.70;;;;;;4937828;29;20051;-73
2023/09/30 11:33:05;;;;;;;8.02;1.48;;;24.30;95.90;;;;;;4953317;29;20063;-73
2023/09/30 11:36:05;;;;;;;8.02;1.35;;;23.80;95.20;;;;;;4953287;29;20051;-72
2023/09/30 11:38:54;;;;;;;9.98;1.88;;;24.10;95.50;;;;;;4937419;29;20051;-74
2023/09/30 11:41:43;;;;;;;9.57;1.90;;;24.10;94.50;;;;;;4936740;29;20055;-86
2023/09/30 11:44:30;;;;;;;6.25;1.17;;;24.70;94.90;;;;;;4937938;29;20307;-85
2023/09/30 11:47:27;;;;;;;8.95;1.70;;;25.30;93.70;;;;;;4937568;29;20059;-84
2023/09/30 11:50:13;;;;;;;9.75;1.77;;;25.60;92.50;;;;;;4954904;28;20415;-84
2023/09/30 11:52:59;;;;;;;6.75;1.20;;;26.10;92.80;;;;;;4937504;29;20157;-81
2023/09/30 11:55:46;;;;;;;8.55;1.48;;;26.80;91.40;;;;;;4924865;29;20105;-79
2023/09/30 11:58:33;;;;;;;9.48;1.80;;;27.10;91.00;;;;;;4937119;29;20059;-83
2023/09/30 12:01:21;;;;;;;9.55;1.45;;;27.70;89.10;;;;;;4952687;29;20055;-75
2023/09/30 12:04:09;;;;;;;11.18;1.70;;;27.90;89.90;;;;;;4936802;29;20057;-76
2023/09/30 12:06:55;;;;;;;8.90;2.38;;;28.10;88.30;;;;;;4937002;29;20448;-80
2023/09/30 12:09:41;;;;;;;5.53;1.38;;;28.50;85.70;;;;;;4924081;29;20051;-82
2023/09/30 12:12:27;;;;;;;6.93;1.40;;;29.10;83.20;;;;;;4952418;29;20138;-83
2023/09/30 12:15:13;;;;;;;7.43;1.60;;;29.70;81.20;;;;;;4952665;29;20063;-80
2023/09/30 12:17:59;;;;;;;8.82;1.75;;;29.90;77.80;;;;;;4936762;29;20051;-85
2023/09/30 12:20:45;;;;;;;7.68;1.42;;;30.00;73.50;;;;;;4936562;29;20579;-87
2023/09/30 12:23:31;;;;;;;9.45;1.15;;;29.40;74.60;;;;;;4953435;29;20396;-75
2023/09/30 12:26:19;;;;;;;4.90;0.82;;;29.70;77.00;;;;;;4953126;29;20154;-81
2023/09/30 12:29:06;;;;;;;14.23;1.65;;;28.70;74.40;;;;;;4953638;29;20411;-80
2023/09/30 12:31:52;;;;;;;8.07;1.25;;;28.00;74.50;;;;;;4936815;29;20095;-80
2023/09/30 12:34:38;;;;;;;5.57;1.20;;;27.10;76.10;;;;;;4953320;29;20404;-84
2023/09/30 12:37:24;;;;;;;8.70;1.73;;;26.70;78.70;;;;;;4936325;29;20535;-78
2023/09/30 12:40:11;;;;;;;8.30;1.33;;;26.60;80.20;;;;;;4936748;29;20055;-78
2023/09/30 12:42:57;;;;;;;8.13;1.45;;;26.50;80.10;;;;;;4923043;29;20055;-78
2023/09/30 12:45:43;;;;;;;7.38;2.00;;;25.90;79.20;;;;;;4953899;28;20047;-84
2023/09/30 12:48:29;;;;;;;6.95;1.15;;;25.60;81.20;;;;;;4910021;29;20069;-88
2023/09/30 12:51:15;;;;;;;7.65;1.40;;;25.50;82.60;;;;;;4953956;28;20047;-86
2023/09/30 12:54:02;;;;;;;13.13;1.65;;;25.60;83.90;;;;;;4936658;29;20420;-84
2023/09/30 12:56:50;;;;;;;6.85;1.95;;;25.50;82.90;;;;;;4936406;29;20393;-84
2023/09/30 12:59:36;;;;;;;6.13;1.30;;;25.00;81.20;;;;;;4936681;29;20167;-82
2023/09/30 13:02:22;;;;;;;6.55;1.42;;;24.80;81.20;;;;;;4923596;29;20062;-86
2023/09/30 13:05:09;;;;;;;6.47;1.75;;;24.60;82.30;;;;;;4935958;29;20529;-75
2023/09/30 13:07:56;;;;;;;7.47;1.60;;;25.10;82.00;;;;;;4936701;29;20411;-75
2023/09/30 13:10:43;;;;;;;5.60;1.60;;;25.90;81.50;;;;;;4936888;29;20055;-79
2023/09/30 13:13:33;;;;;;;6.85;2.22;;;26.70;80.10;;;;;;4936539;29;20058;-84
2023/09/30 13:16:19;;;;;;;6.90;1.30;;;26.20;78.40;;;;;;4953915;28;20423;-84
2023/09/30 13:19:05;;;;;;;6.50;1.58;;;25.60;80.50;;;;;;4966766;29;20079;-79
2023/09/30 13:21:52;;;;;;;8.88;1.60;;;24.70;80.20;;;;;;4967058;28;20083;-72
2023/09/30 13:24:39;;;;;;;6.72;1.13;;;24.40;82.20;;;;;;4950612;29;20047;-72
2023/09/30 13:27:25;;;;;;;9.82;2.00;;;23.90;83.40;;;;;;4952405;29;20051;-76
2023/09/30 13:30:11;;;;;;;9.82;2.72;;;23.60;85.70;;;;;;4937342;29;20134;-76
2023/09/30 13:32:58;;;;;;;6.15;1.30;;;23.40;86.60;;;;;;4935397;29;20102;-72
2023/09/30 13:35:45;;;;;;;8.07;1.42;;;23.20;88.50;;;;;;4935425;29;20059;-72
2023/09/30 13:38:31;;;;;;;8.45;1.27;;;23.10;88.60;;;;;;4935503;29;20059;-75
2023/09/30 13:41:17;;;;;;;8.13;1.80;;;23.10;88.00;;;;;;4951363;29;20114;-72
2023/09/30 13:44:05;;;;;;;5.50;1.45;;;23.10;87.80;;;;;;4935220;29;20488;-72
2023/09/30 13:46:51;;;;;;;9.23;2.97;;;22.90;88.20;;;;;;4935607;29;20087;-74
2023/09/30 13:49:37;;;;;;;9.00;1.70;;;23.10;89.00;;;;;;4951422;29;20137;-82
2023/09/30 13:56:24;;;;;;;11.60;1.52;;;23.50;88.90;;;;;;4952949;29;20126;-77
2023/09/30 13:59:10;;;;;;;9.25;1.67;;;23.70;88.30;;;;;;4953314;28;20055;-73
2023/09/30 14:01:56;;;;;;;13.30;1.95;;;23.70;88.50;;;;;;4921609;29;20472;-76
2023/09/30 14:04:43;;;;;;;7.80;1.48;;;24.40;86.90;;;;;;4935404;29;20063;-73
2023/09/30 14:07:29;;;;;;;5.82;1.00;;;24.70;86.50;;;;;;4935457;29;20146;-74
2023/09/30 14:10:18;;;;;;;8.88;1.63;;;24.30;86.70;;;;;;4923184;29;20047;-82
2023/09/30 14:13:04;;;;;;;5.53;1.40;;;23.80;88.00;;;;;;4938076;29;20051;-83
2023/09/30 14:15:52;;;;;;;6.25;1.50;;;23.30;89.30;;;;;;4952479;29;20090;-74
2023/09/30 14:18:39;;;;;;;7.47;1.58;;;23.00;90.40;;;;;;4935400;29;20134;-85
2023/09/30 14:21:25;;;;;;;7.07;1.35;;;22.90;91.10;;;;;;4934552;29;20069;-75
2023/09/30 14:24:11;;;;;;;10.85;1.70;;;22.60;91.60;;;;;;4950785;29;20062;-83
2023/09/30 14:26:57;;;;;;;7.63;1.60;;;22.50;91.80;;;;;;4935199;29;20118;-83